Terminal Aerodrome Forecast
Issued by NWS

Home | Current Version | Previous Version | Text Only | Print | Product List | Glossary On
Versions: 1 2 3 4 5 6 7 8 9 10 11 12 13 14 15 16 17 18 19 20 21 22 23 24 25
000
FTUS46 KEKA 301137
TAFCEC
TAF
KCEC 301137Z 3012/0112 35004KT P6SM SCT005
     FM301800 34010KT P6SM SKC
     FM301900 34012G20KT P6SM SKC
     FM302100 34018G28KT P6SM SKC
     FM010600 35011KT P6SM SKC=

USA.gov is the U.S. government's official web portal to all federal, state and local government web resources and services.